Terminal Aerodrome Forecast
Issued by NWS Corpus Christi, TX

Home | Current Version | Previous Version | Text Only | Print | Product List | Glossary On
Versions: 1 2 3 4 5 6 7 8 9 10 11 12 13 14 15
000
FTUS44 KCRP 040534
TAFVCT
TAF
KVCT 040534Z 0406/0506 13008KT P6SM SCT015 BKN070
      TEMPO 0409/0413 BKN015
     FM041500 14013KT P6SM VCSH SCT030 BKN070
     FM042100 14017G24KT P6SM FEW050 SCT120
     FM050000 13013KT P6SM SCT020 BKN250=

USA.gov is the U.S. government's official web portal to all federal, state and local government web resources and services.